Aviation Digital Data Service (ADDS)

Output produced by METARs form (1111 UTC 24 April 2017)
found at http://www.aviationweather.gov/adds/metars/
 
FKKD 241100Z 30002KT 9999 BKN016 FEW020CB 31/25 Q1012 NOSIG
TAF FKKD 240500Z 2406/2512 00000KT 8000 BKN013 FEW016CB 
     PROB40 2406/2407 3000 BR 
     BECMG 2407/2409 BKN016 FEW020CB 
     BECMG 2418/2420 TS BKN013 FEW016CB
       
FKKR 241100Z 26014KT CAVOK 39/20 Q1009 NOSIG
FKKN 241100Z 22006KT 9999 BKN020 29/21 Q1018
FKYS 241000Z 22003KT 140V270 9999 BKN016 28/22 Q1017 NOSIG
TAF COR FKYS 240500Z 2406/2506 25004KT 3000 BR BKN006 
     BECMG 2407/2409 8000 NSW BKN016 
     TEMPO 2415/2420 TS BKN014 FEW023CB 
     BECMG 2420/2422 BKN006